Time;durP1;ratioP1;P1;durP2;ratioP2;P2;SDS_P1;SDS_P2;PMS_P1;PMS_P2;Temp;Humidity;BMP_temperature;BMP_pressure;BME280_temperature;BME280_humidity;BME280_pressure;Samples;Min_cycle;Max_cycle;Signal;HPM_P1;HPM_P2
2022/01/07 00:00:39;;;;;;;4.03;2.63;;;4.80;99.90;;;;;;5073724;28;20365;-79
2022/01/07 00:03:05;;;;;;;7.40;2.78;;;4.80;99.90;;;;;;5072631;28;20512;-81
2022/01/07 00:05:31;;;;;;;5.55;2.40;;;4.70;99.90;;;;;;5074042;28;20029;-79
2022/01/07 00:07:57;;;;;;;10.27;2.60;;;4.70;99.90;;;;;;5072986;28;20123;-79
2022/01/07 00:10:23;;;;;;;11.15;2.75;;;4.60;99.90;;;;;;5073338;28;20112;-79
2022/01/07 00:12:50;;;;;;;13.75;2.78;;;4.60;99.90;;;;;;5073670;28;20489;-80
2022/01/07 00:15:16;;;;;;;4.28;2.65;;;4.60;99.90;;;;;;5072306;28;20480;-80
2022/01/07 00:17:43;;;;;;;7.38;2.55;;;4.50;99.90;;;;;;5073797;28;20035;-80
2022/01/07 00:20:10;;;;;;;7.05;2.90;;;4.60;99.90;;;;;;5073726;28;20201;-79
2022/01/07 00:22:40;;;;;;;9.07;3.63;;;4.60;99.90;;;;;;5072856;28;20020;-79
2022/01/07 00:25:07;;;;;;;6.63;2.42;;;4.60;99.90;;;;;;5073036;28;20312;-80
2022/01/07 00:27:33;;;;;;;3.67;2.75;;;4.50;99.90;;;;;;5073052;28;20070;-79
2022/01/07 00:29:59;;;;;;;14.07;2.88;;;4.60;99.90;;;;;;5072548;28;20066;-80
2022/01/07 00:32:24;;;;;;;10.82;2.60;;;4.60;99.90;;;;;;5072978;28;20031;-80
2022/01/07 00:34:50;;;;;;;13.93;3.22;;;4.70;99.90;;;;;;5072949;28;20024;-80
2022/01/07 00:37:17;;;;;;;8.88;2.90;;;4.60;99.90;;;;;;5072427;28;20074;-80
2022/01/07 00:39:42;;;;;;;8.15;3.05;;;4.60;99.90;;;;;;5073212;28;20020;-80
2022/01/07 00:42:08;;;;;;;6.78;2.35;;;4.60;99.90;;;;;;5073273;28;20376;-80
2022/01/07 00:44:34;;;;;;;6.40;3.00;;;4.70;99.90;;;;;;5076300;28;20028;-81
2022/01/07 00:46:59;;;;;;;4.20;2.45;;;4.70;99.90;;;;;;5072863;28;20032;-81
2022/01/07 00:49:25;;;;;;;7.03;2.97;;;4.70;99.90;;;;;;5072516;28;20029;-81
2022/01/07 00:51:51;;;;;;;7.68;2.60;;;4.70;99.90;;;;;;5072252;28;20050;-80
2022/01/07 00:54:17;;;;;;;5.97;2.10;;;4.70;99.90;;;;;;5075367;28;20091;-79
2022/01/07 00:56:43;;;;;;;3.88;2.45;;;4.70;99.90;;;;;;5072953;28;20472;-79
2022/01/07 00:59:09;;;;;;;5.82;2.50;;;4.80;99.90;;;;;;5075753;28;20192;-79
2022/01/07 01:01:35;;;;;;;7.93;3.35;;;4.80;99.90;;;;;;5072860;28;20115;-80
2022/01/07 01:04:01;;;;;;;8.02;2.63;;;4.80;99.90;;;;;;5072626;28;20044;-80
2022/01/07 01:06:26;;;;;;;5.53;2.40;;;4.80;99.90;;;;;;5072087;28;20036;-79
2022/01/07 01:08:52;;;;;;;12.45;3.00;;;4.80;99.90;;;;;;5073496;28;20512;-79
2022/01/07 01:11:17;;;;;;;4.85;2.83;;;4.80;99.90;;;;;;5072427;28;20024;-78
2022/01/07 01:13:43;;;;;;;7.22;2.53;;;4.80;99.90;;;;;;5073052;28;20477;-78
2022/01/07 01:16:08;;;;;;;5.80;2.92;;;4.70;99.90;;;;;;5073117;28;20020;-79
2022/01/07 01:18:37;;;;;;;7.72;2.75;;;4.70;99.90;;;;;;5072784;28;20028;-80
2022/01/07 01:21:05;;;;;;;9.95;3.45;;;4.70;99.90;;;;;;5072502;28;20371;-77
2022/01/07 01:23:32;;;;;;;11.95;3.53;;;4.70;99.90;;;;;;5073858;28;20119;-78
2022/01/07 01:25:58;;;;;;;5.88;3.00;;;4.80;99.90;;;;;;5071840;28;20130;-78
2022/01/07 01:28:23;;;;;;;14.55;5.15;;;4.70;99.90;;;;;;5071905;28;20044;-78
2022/01/07 01:30:49;;;;;;;9.57;3.33;;;4.70;99.90;;;;;;5072481;28;20107;-79
2022/01/07 01:33:15;;;;;;;15.15;4.93;;;4.70;99.90;;;;;;5076013;28;20028;-79
2022/01/07 01:35:41;;;;;;;10.60;3.90;;;4.70;99.90;;;;;;5092854;28;20104;-79
2022/01/07 01:38:06;;;;;;;8.63;3.90;;;4.70;99.90;;;;;;5092468;28;20418;-79
2022/01/07 01:40:32;;;;;;;6.18;3.30;;;4.60;99.90;;;;;;5091636;28;20486;-80
2022/01/07 01:43:00;;;;;;;8.00;3.83;;;4.60;99.90;;;;;;5092771;28;20020;-79
2022/01/07 01:45:26;;;;;;;7.55;4.03;;;4.60;99.90;;;;;;5092167;28;20043;-80
2022/01/07 01:47:52;;;;;;;17.42;5.20;;;4.60;99.90;;;;;;5091551;28;20029;-79
2022/01/07 01:50:18;;;;;;;10.20;3.97;;;4.70;99.90;;;;;;5092321;28;20024;-79
2022/01/07 01:52:53;;;;;;;8.85;3.17;;;4.60;99.90;;;;;;5093661;28;20396;-79
2022/01/07 01:55:19;;;;;;;8.25;3.53;;;4.60;99.90;;;;;;5091621;28;20053;-78
2022/01/07 01:57:45;;;;;;;8.38;3.65;;;4.60;99.90;;;;;;5092325;28;20103;-78
2022/01/07 02:00:12;;;;;;;10.10;3.42;;;4.60;99.90;;;;;;5092512;28;20158;-77
2022/01/07 02:02:38;;;;;;;8.48;4.18;;;4.60;99.90;;;;;;5092688;28;20044;-78
2022/01/07 02:05:04;;;;;;;8.15;3.42;;;4.60;99.90;;;;;;5092205;28;20021;-78
2022/01/07 02:07:34;;;;;;;9.18;3.60;;;4.60;99.90;;;;;;5091636;28;20126;-77
2022/01/07 02:10:08;;;;;;;7.68;3.88;;;4.60;99.90;;;;;;5091050;28;20023;-77
2022/01/07 02:12:34;;;;;;;9.27;3.40;;;4.50;99.90;;;;;;5092180;28;20036;-77
2022/01/07 02:14:59;;;;;;;12.48;4.63;;;4.50;99.90;;;;;;5091493;28;20469;-78
2022/01/07 02:17:26;;;;;;;10.05;3.33;;;4.50;99.90;;;;;;5091741;28;20032;-77
2022/01/07 02:19:53;;;;;;;8.70;4.05;;;4.50;99.90;;;;;;5092166;28;20356;-78
2022/01/07 02:22:18;;;;;;;8.10;3.60;;;4.50;99.90;;;;;;5091227;28;20438;-78
2022/01/07 02:24:46;;;;;;;8.60;4.13;;;4.60;99.90;;;;;;5092051;28;20107;-77
2022/01/07 02:27:13;;;;;;;4.80;3.53;;;4.60;99.90;;;;;;5091800;28;20046;-77
2022/01/07 02:29:39;;;;;;;10.75;4.18;;;4.60;99.90;;;;;;5091247;28;20042;-78
2022/01/07 02:32:06;;;;;;;9.98;3.72;;;4.60;99.90;;;;;;5092250;28;20028;-77
2022/01/07 02:34:31;;;;;;;7.35;3.70;;;4.60;99.90;;;;;;5095505;28;20019;-79
2022/01/07 02:36:57;;;;;;;10.23;4.10;;;4.60;99.90;;;;;;5094654;28;20030;-78
2022/01/07 02:39:26;;;;;;;11.85;3.83;;;4.60;99.90;;;;;;5095390;28;20035;-77
2022/01/07 02:41:51;;;;;;;6.47;4.07;;;4.60;99.90;;;;;;5095367;28;20023;-78
2022/01/07 02:44:17;;;;;;;8.18;3.88;;;4.60;99.90;;;;;;5094812;28;20383;-79
2022/01/07 02:46:43;;;;;;;7.93;4.40;;;4.60;99.90;;;;;;5095437;28;20028;-77
2022/01/07 02:49:14;;;;;;;12.57;4.57;;;4.60;99.90;;;;;;5094948;28;20024;-77
2022/01/07 02:51:40;;;;;;;8.07;4.45;;;4.60;99.90;;;;;;5094625;28;20036;-76
2022/01/07 02:54:07;;;;;;;11.25;4.10;;;4.60;99.90;;;;;;5095143;28;20028;-77
2022/01/07 02:56:37;;;;;;;9.13;4.35;;;4.50;99.90;;;;;;5095269;28;20024;-78
2022/01/07 02:59:03;;;;;;;5.00;4.20;;;4.50;99.90;;;;;;5095216;28;20028;-77
2022/01/07 03:01:29;;;;;;;7.97;4.07;;;4.60;99.90;;;;;;5095139;28;20028;-78
2022/01/07 03:03:55;;;;;;;10.63;4.28;;;4.50;99.90;;;;;;5094206;28;20517;-75
2022/01/07 03:06:21;;;;;;;7.80;4.32;;;4.60;99.90;;;;;;5094518;28;20020;-76
2022/01/07 03:08:48;;;;;;;4.53;3.78;;;4.60;99.90;;;;;;5094592;28;20121;-75
2022/01/07 03:11:13;;;;;;;5.32;4.07;;;4.60;99.90;;;;;;5093741;28;20065;-75
2022/01/07 03:13:39;;;;;;;9.00;5.88;;;4.60;99.90;;;;;;5095064;28;20054;-78
2022/01/07 03:16:05;;;;;;;11.75;4.82;;;4.60;99.90;;;;;;5094528;28;20100;-78
2022/01/07 03:18:30;;;;;;;7.60;4.47;;;4.60;99.90;;;;;;5094364;28;20487;-76
2022/01/07 03:20:58;;;;;;;5.82;4.65;;;4.50;99.90;;;;;;5094617;28;20050;-78
2022/01/07 03:23:24;;;;;;;7.03;4.55;;;4.60;99.90;;;;;;5094331;28;20099;-77
2022/01/07 03:25:50;;;;;;;6.25;4.47;;;4.50;99.90;;;;;;5093944;28;20127;-78
2022/01/07 03:28:16;;;;;;;7.90;4.85;;;4.60;99.90;;;;;;5094126;28;20085;-78
2022/01/07 03:30:42;;;;;;;6.00;5.47;;;4.60;99.90;;;;;;5094621;28;20024;-77
2022/01/07 03:33:08;;;;;;;8.07;5.28;;;4.50;99.90;;;;;;5093507;28;20024;-76
2022/01/07 03:35:34;;;;;;;8.35;5.47;;;4.60;99.90;;;;;;5094410;28;20093;-78
2022/01/07 03:38:00;;;;;;;8.40;5.05;;;4.70;99.90;;;;;;5094386;28;20095;-75
2022/01/07 03:40:26;;;;;;;5.93;5.35;;;4.70;99.90;;;;;;5093626;28;20032;-79
2022/01/07 03:42:52;;;;;;;7.80;4.80;;;4.70;99.90;;;;;;5094429;28;20020;-76
2022/01/07 03:45:19;;;;;;;6.15;5.57;;;4.60;99.90;;;;;;5092969;28;20031;-76
2022/01/07 03:47:45;;;;;;;7.50;6.03;;;4.70;99.90;;;;;;5093527;28;20031;-78
2022/01/07 03:50:14;;;;;;;8.70;6.25;;;4.70;99.90;;;;;;5094095;28;20100;-77
2022/01/07 03:52:41;;;;;;;8.13;5.25;;;4.60;99.90;;;;;;5095252;28;20028;-78
2022/01/07 03:55:10;;;;;;;9.60;6.22;;;4.60;99.90;;;;;;5092878;28;20471;-78
2022/01/07 03:57:35;;;;;;;12.50;6.47;;;5.40;99.90;;;;;;5094173;28;20387;-77
2022/01/07 04:00:02;;;;;;;6.18;5.68;;;4.70;99.90;;;;;;5093494;28;20111;-76
2022/01/07 04:02:27;;;;;;;10.02;5.78;;;4.70;99.90;;;;;;5094273;28;20040;-76
2022/01/07 04:04:53;;;;;;;10.23;6.45;;;4.70;99.90;;;;;;5095196;28;20051;-76
2022/01/07 04:07:19;;;;;;;6.88;6.13;;;4.80;99.90;;;;;;5092580;28;20043;-76
2022/01/07 04:09:44;;;;;;;10.27;6.93;;;4.70;99.90;;;;;;5094740;28;20032;-76
2022/01/07 04:12:10;;;;;;;11.88;7.85;;;4.70;99.90;;;;;;5093150;28;20115;-76
2022/01/07 04:14:35;;;;;;;8.13;7.15;;;4.80;99.90;;;;;;5092848;28;20107;-77
2022/01/07 04:17:01;;;;;;;11.10;7.32;;;4.80;99.90;;;;;;5093567;28;20024;-76
2022/01/07 04:19:26;;;;;;;14.32;7.47;;;4.90;99.90;;;;;;5093413;28;20028;-77
2022/01/07 04:21:52;;;;;;;9.52;7.28;;;4.80;99.90;;;;;;5092807;28;20027;-78
2022/01/07 04:24:18;;;;;;;9.95;7.82;;;4.80;99.90;;;;;;5093154;28;20111;-77
2022/01/07 04:26:43;;;;;;;8.20;7.40;;;4.90;99.90;;;;;;5093498;28;20146;-77
2022/01/07 04:29:09;;;;;;;8.32;7.53;;;4.90;99.90;;;;;;5092608;28;20102;-77
2022/01/07 04:31:35;;;;;;;12.00;7.82;;;4.90;99.90;;;;;;5093283;28;20383;-77
2022/01/07 04:34:00;;;;;;;11.18;8.30;;;4.90;99.90;;;;;;5093298;28;20020;-76
2022/01/07 04:36:26;;;;;;;12.85;7.75;;;4.90;99.90;;;;;;5092160;28;20024;-77
2022/01/07 04:38:52;;;;;;;18.20;8.27;;;6.00;99.90;;;;;;5092723;28;20024;-78
2022/01/07 04:41:18;;;;;;;13.85;7.50;;;4.90;99.90;;;;;;5092898;28;20077;-79
2022/01/07 04:43:43;;;;;;;11.30;7.82;;;5.00;99.90;;;;;;5092815;28;20047;-79
2022/01/07 04:46:09;;;;;;;8.38;7.20;;;5.00;99.90;;;;;;5092938;28;20475;-76
2022/01/07 04:48:34;;;;;;;13.43;7.40;;;4.90;99.90;;;;;;5092989;28;20097;-78
2022/01/07 04:51:00;;;;;;;13.00;8.00;;;5.00;99.90;;;;;;5092212;28;20070;-79
2022/01/07 04:53:26;;;;;;;10.07;7.30;;;5.10;99.90;;;;;;5093070;28;20020;-78
2022/01/07 04:55:53;;;;;;;8.98;7.63;;;5.10;99.90;;;;;;5092832;28;20103;-78
2022/01/07 04:58:22;;;;;;;10.95;7.20;;;5.10;99.90;;;;;;5092385;28;20024;-80
2022/01/07 05:00:47;;;;;;;11.82;7.70;;;5.10;99.90;;;;;;5092850;28;20058;-79
2022/01/07 05:03:13;;;;;;;11.32;7.90;;;5.10;99.90;;;;;;5091912;28;20072;-79
2022/01/07 05:05:39;;;;;;;11.77;7.75;;;5.20;99.90;;;;;;5092672;28;20020;-77
2022/01/07 05:08:05;;;;;;;12.48;7.40;;;5.20;99.90;;;;;;5092678;28;20055;-79
2022/01/07 05:10:32;;;;;;;17.67;7.32;;;5.20;99.90;;;;;;5092196;28;20020;-78
2022/01/07 05:12:57;;;;;;;13.13;8.43;;;5.20;99.90;;;;;;5092837;28;20024;-79
2022/01/07 05:15:23;;;;;;;14.50;7.65;;;5.20;99.90;;;;;;5092354;28;20028;-80
2022/01/07 05:17:49;;;;;;;12.18;8.43;;;5.20;99.90;;;;;;5091950;28;20043;-81
2022/01/07 05:20:16;;;;;;;15.73;8.93;;;5.20;99.90;;;;;;5092150;28;20024;-78
2022/01/07 05:22:43;;;;;;;16.58;6.88;;;5.30;99.90;;;;;;5092971;28;20062;-78
2022/01/07 05:25:10;;;;;;;13.27;7.85;;;5.20;99.90;;;;;;5091663;28;20027;-78
2022/01/07 05:27:35;;;;;;;10.85;8.23;;;5.30;99.90;;;;;;5092427;28;20028;-79
2022/01/07 05:30:01;;;;;;;13.25;7.95;;;5.30;99.90;;;;;;5092694;28;20039;-79
2022/01/07 05:32:27;;;;;;;9.65;7.43;;;5.30;99.90;;;;;;5091406;28;20467;-78
2022/01/07 05:34:52;;;;;;;11.23;7.47;;;5.30;99.90;;;;;;5092241;28;20032;-80
2022/01/07 05:37:18;;;;;;;10.65;8.10;;;5.30;99.90;;;;;;5092501;28;20032;-80
2022/01/07 05:39:43;;;;;;;9.57;7.63;;;5.40;99.90;;;;;;5091942;28;20027;-79
2022/01/07 05:42:09;;;;;;;15.60;8.05;;;5.40;99.90;;;;;;5092330;28;20020;-79
2022/01/07 05:44:35;;;;;;;12.57;8.05;;;5.40;99.90;;;;;;5092368;28;20063;-79
2022/01/07 05:47:01;;;;;;;13.30;7.15;;;5.40;99.90;;;;;;5091511;28;20062;-79
2022/01/07 05:49:26;;;;;;;15.75;7.63;;;5.40;99.90;;;;;;5092281;28;20028;-79
2022/01/07 05:51:52;;;;;;;12.57;8.13;;;5.40;99.90;;;;;;5092660;28;20020;-79
2022/01/07 05:54:17;;;;;;;18.63;7.18;;;5.40;99.90;;;;;;5091581;28;20107;-79
2022/01/07 05:56:43;;;;;;;22.88;8.18;;;5.50;99.90;;;;;;5092490;28;20066;-78
2022/01/07 05:59:08;;;;;;;17.25;8.52;;;5.40;99.90;;;;;;5092089;28;20042;-79
2022/01/07 06:01:34;;;;;;;15.10;7.97;;;5.50;99.90;;;;;;5091566;28;20016;-78
2022/01/07 06:04:00;;;;;;;20.40;9.60;;;5.40;99.90;;;;;;5092085;28;20051;-79
2022/01/07 06:06:25;;;;;;;13.15;8.05;;;5.40;99.90;;;;;;5092951;28;20068;-80
2022/01/07 06:08:51;;;;;;;11.43;8.10;;;5.50;99.90;;;;;;5100346;28;20423;-78
2022/01/07 06:11:17;;;;;;;11.38;7.43;;;5.50;99.90;;;;;;5075344;28;20036;-81
2022/01/07 06:13:43;;;;;;;18.50;9.40;;;5.40;99.90;;;;;;5073774;28;20033;-80
2022/01/07 06:16:08;;;;;;;14.65;8.40;;;5.40;99.90;;;;;;5074040;28;20533;-80
2022/01/07 06:18:35;;;;;;;10.90;8.63;;;5.40;99.90;;;;;;5074052;28;20505;-80
2022/01/07 06:21:01;;;;;;;12.40;7.63;;;5.50;99.90;;;;;;5074215;28;20052;-81
2022/01/07 06:23:26;;;;;;;16.02;8.48;;;5.50;99.90;;;;;;5074823;28;20427;-80
2022/01/07 06:25:52;;;;;;;13.60;8.85;;;5.40;99.90;;;;;;5075043;28;20025;-80
2022/01/07 06:28:18;;;;;;;14.68;9.05;;;5.40;99.90;;;;;;5079550;28;20041;-80
2022/01/07 06:30:44;;;;;;;14.32;8.75;;;5.40;99.90;;;;;;5080637;28;20112;-81
2022/01/07 06:33:09;;;;;;;11.85;8.10;;;5.50;99.90;;;;;;5077424;28;20112;-79
2022/01/07 06:35:35;;;;;;;16.63;8.85;;;5.40;99.90;;;;;;5080758;28;20024;-81
2022/01/07 06:38:01;;;;;;;14.80;8.70;;;5.40;99.90;;;;;;5078913;28;20025;-80
2022/01/07 06:40:26;;;;;;;14.07;7.93;;;5.40;99.90;;;;;;5074267;28;20380;-79
2022/01/07 06:42:52;;;;;;;9.35;7.40;;;5.40;99.90;;;;;;5078054;28;20044;-80
2022/01/07 06:45:24;;;;;;;15.23;7.35;;;5.50;99.90;;;;;;5077446;28;20074;-79
2022/01/07 06:47:49;;;;;;;22.60;8.73;;;6.00;99.90;;;;;;5089115;28;20040;-79
2022/01/07 06:50:15;;;;;;;13.77;8.02;;;5.40;99.90;;;;;;5093989;28;20115;-80
2022/01/07 06:52:40;;;;;;;14.05;7.50;;;5.40;99.90;;;;;;5092679;28;20027;-80
2022/01/07 06:55:06;;;;;;;12.98;7.75;;;5.50;99.90;;;;;;5080275;28;20020;-81
2022/01/07 06:57:33;;;;;;;12.82;8.02;;;5.40;99.90;;;;;;5077581;28;20021;-81
2022/01/07 06:59:58;;;;;;;18.25;8.63;;;5.50;99.90;;;;;;5082726;28;20027;-82
2022/01/07 07:02:24;;;;;;;16.38;8.38;;;5.50;99.90;;;;;;5088690;28;20123;-83
2022/01/07 07:04:50;;;;;;;17.88;9.13;;;5.40;99.90;;;;;;5091995;28;20450;-84
2022/01/07 07:07:15;;;;;;;20.88;9.15;;;5.50;99.90;;;;;;5095360;28;20478;-85
2022/01/07 07:09:41;;;;;;;17.17;9.00;;;5.50;99.90;;;;;;5093498;28;20537;-85
2022/01/07 07:12:07;;;;;;;21.30;9.07;;;5.50;99.90;;;;;;5092469;28;20020;-85
2022/01/07 07:14:33;;;;;;;13.70;8.10;;;5.50;99.90;;;;;;5088000;28;20498;-85
2022/01/07 07:16:58;;;;;;;24.35;10.43;;;5.60;99.90;;;;;;5085969;28;20024;-86
2022/01/07 07:19:24;;;;;;;17.33;8.65;;;5.60;99.90;;;;;;5087335;28;20156;-86
2022/01/07 07:21:51;;;;;;;16.45;8.95;;;5.60;99.90;;;;;;5088458;28;20055;-85
2022/01/07 07:24:16;;;;;;;14.77;8.70;;;5.50;99.90;;;;;;5096283;28;20024;-86
2022/01/07 07:26:42;;;;;;;12.80;8.73;;;5.50;99.90;;;;;;5083253;28;20028;-86
2022/01/07 07:29:07;;;;;;;17.75;8.32;;;5.50;99.90;;;;;;5089703;28;20027;-85
2022/01/07 07:31:38;;;;;;;17.77;8.30;;;5.40;99.90;;;;;;5079917;28;20171;-85
2022/01/07 07:34:20;;;;;;;7.43;6.72;;;5.40;99.90;;;;;;5092638;28;20432;-85
2022/01/07 07:36:46;;;;;;;15.98;9.98;;;5.30;99.90;;;;;;5080955;28;20028;-85
2022/01/07 07:39:13;;;;;;;13.55;7.07;;;5.30;99.90;;;;;;5080467;28;20353;-84
2022/01/07 07:41:41;;;;;;;14.45;6.95;;;5.30;99.90;;;;;;5092942;28;20467;-84
2022/01/07 07:44:07;;;;;;;13.95;7.38;;;5.30;99.90;;;;;;5089373;28;20051;-84
2022/01/07 07:46:34;;;;;;;11.45;7.20;;;5.20;99.90;;;;;;5074097;28;20027;-84
2022/01/07 07:49:02;;;;;;;13.50;5.80;;;5.10;99.90;;;;;;5074238;28;20048;-82
2022/01/07 07:51:28;;;;;;;13.88;6.65;;;5.00;99.90;;;;;;5076780;28;20032;-80
2022/01/07 07:53:54;;;;;;;15.48;7.18;;;5.00;99.90;;;;;;5084779;28;20375;-79
2022/01/07 07:56:20;;;;;;;14.50;7.57;;;4.90;99.90;;;;;;5092230;28;20016;-79
2022/01/07 07:58:46;;;;;;;11.65;7.38;;;4.90;99.90;;;;;;5091195;28;20028;-80
2022/01/07 08:01:12;;;;;;;10.07;7.10;;;4.80;99.90;;;;;;5092790;28;20016;-78
2022/01/07 08:03:41;;;;;;;13.32;7.18;;;4.90;99.90;;;;;;5093152;28;20071;-78
2022/01/07 08:06:06;;;;;;;10.82;6.80;;;4.90;99.90;;;;;;5093032;28;20024;-79
2022/01/07 08:08:33;;;;;;;11.05;6.82;;;4.90;99.90;;;;;;5094199;28;20059;-81
2022/01/07 08:11:00;;;;;;;15.07;7.18;;;4.80;99.90;;;;;;5093987;28;20031;-78
2022/01/07 08:13:30;;;;;;;10.80;6.68;;;5.20;99.90;;;;;;5092929;28;20772;-80
2022/01/07 08:16:06;;;;;;;13.85;7.20;;;4.90;99.90;;;;;;5094247;28;20155;-79
2022/01/07 08:18:36;;;;;;;12.55;6.85;;;4.90;99.90;;;;;;5096184;28;20028;-77
2022/01/07 08:21:12;;;;;;;18.55;6.60;;;4.90;99.90;;;;;;5094860;28;20391;-78
2022/01/07 08:23:40;;;;;;;12.50;6.85;;;4.90;99.90;;;;;;5094762;28;20032;-79
2022/01/07 08:26:09;;;;;;;15.20;6.75;;;5.00;99.90;;;;;;5090972;28;20095;-78
2022/01/07 08:28:43;;;;;;;13.10;7.13;;;5.00;99.90;;;;;;5094051;28;20032;-77
2022/01/07 08:36:24;;;;;;;8.10;5.53;;;5.10;99.90;;;;;;5093824;28;20081;-78
2022/01/07 08:38:50;;;;;;;12.40;5.95;;;5.00;99.90;;;;;;5086602;28;20383;-78
2022/01/07 08:41:17;;;;;;;11.32;6.22;;;5.00;99.90;;;;;;5076245;28;20111;-79
2022/01/07 08:43:43;;;;;;;13.80;6.30;;;5.00;99.90;;;;;;5073178;28;20025;-77
2022/01/07 08:46:09;;;;;;;13.40;6.82;;;5.10;99.90;;;;;;5073164;28;20392;-80
2022/01/07 08:48:39;;;;;;;13.50;5.90;;;5.10;99.90;;;;;;5072973;28;20547;-78
2022/01/07 08:51:05;;;;;;;9.55;5.53;;;5.10;99.90;;;;;;5073650;28;20032;-80
2022/01/07 08:53:31;;;;;;;14.23;4.75;;;5.10;99.90;;;;;;5074031;28;20480;-78
2022/01/07 08:55:57;;;;;;;11.27;5.53;;;5.20;99.90;;;;;;5072715;28;20024;-78
2022/01/07 08:58:23;;;;;;;13.07;5.43;;;5.20;99.90;;;;;;5072786;28;20115;-77
2022/01/07 09:00:49;;;;;;;13.13;5.85;;;5.20;99.90;;;;;;5073645;28;20111;-79
2022/01/07 09:03:15;;;;;;;10.27;5.45;;;5.30;99.90;;;;;;5072200;28;20223;-79
2022/01/07 09:05:40;;;;;;;13.68;5.60;;;5.20;99.90;;;;;;5074166;28;20027;-76
2022/01/07 09:08:09;;;;;;;12.40;4.32;;;5.20;99.90;;;;;;5072595;28;20511;-76
2022/01/07 09:10:35;;;;;;;9.93;5.32;;;5.20;99.90;;;;;;5072008;28;20032;-76
2022/01/07 09:13:01;;;;;;;16.13;5.28;;;5.30;99.90;;;;;;5073291;28;20118;-77
2022/01/07 09:15:29;;;;;;;15.95;5.20;;;5.30;99.90;;;;;;5072558;28;20025;-76
2022/01/07 09:17:55;;;;;;;7.20;4.72;;;5.30;99.90;;;;;;5072590;28;20414;-77
2022/01/07 09:20:21;;;;;;;12.00;4.93;;;5.30;99.90;;;;;;5075345;28;20028;-73
2022/01/07 09:22:48;;;;;;;8.52;4.47;;;5.50;99.90;;;;;;5090644;28;20039;-73
2022/01/07 09:25:13;;;;;;;11.85;5.15;;;5.60;99.90;;;;;;5092447;28;20025;-76
2022/01/07 09:27:41;;;;;;;12.30;5.43;;;5.50;99.90;;;;;;5092892;28;20162;-74
2022/01/07 09:30:08;;;;;;;14.57;5.78;;;5.60;99.90;;;;;;5093161;28;20028;-75
2022/01/07 09:32:34;;;;;;;8.55;5.32;;;5.50;99.90;;;;;;5094037;28;20024;-76
2022/01/07 09:35:03;;;;;;;10.85;4.88;;;5.50;99.90;;;;;;5089186;28;20074;-71
2022/01/07 09:37:29;;;;;;;10.85;5.05;;;5.60;99.90;;;;;;5076794;28;20031;-75
2022/01/07 09:39:55;;;;;;;9.55;4.47;;;5.60;99.90;;;;;;5093050;28;20371;-77
2022/01/07 09:42:20;;;;;;;20.88;6.47;;;5.60;99.90;;;;;;5095348;28;20073;-77
2022/01/07 09:44:47;;;;;;;8.82;4.45;;;5.60;99.90;;;;;;5096179;28;20028;-78
2022/01/07 09:47:13;;;;;;;14.80;4.50;;;5.70;99.90;;;;;;5096748;28;20036;-77
2022/01/07 09:49:40;;;;;;;10.88;4.60;;;5.70;99.90;;;;;;5083055;28;20395;-76
2022/01/07 09:52:07;;;;;;;11.02;4.28;;;5.80;99.90;;;;;;5085786;28;20020;-76
2022/01/07 09:54:34;;;;;;;10.48;4.05;;;5.80;99.90;;;;;;5094509;28;20063;-74
2022/01/07 09:57:00;;;;;;;7.43;3.65;;;5.80;99.90;;;;;;5096566;28;20024;-76
2022/01/07 09:59:26;;;;;;;7.82;4.00;;;5.80;99.90;;;;;;5095633;28;20016;-76
2022/01/07 10:02:06;;;;;;;13.52;3.60;;;5.80;99.90;;;;;;5096243;28;20036;-76
2022/01/07 10:04:34;;;;;;;8.97;4.13;;;5.80;99.90;;;;;;5095665;28;20483;-75
2022/01/07 10:07:22;;;;;;;17.00;4.35;;;5.80;99.90;;;;;;5092420;28;20036;-74
2022/01/07 10:10:01;;;;;;;11.60;3.95;;;5.90;99.90;;;;;;5095651;28;20432;-73
2022/01/07 10:12:48;;;;;;;11.50;4.25;;;6.00;99.90;;;;;;5076608;28;20393;-73
2022/01/07 10:15:16;;;;;;;14.88;4.45;;;6.00;99.90;;;;;;5074932;28;20123;-73
2022/01/07 10:17:57;;;;;;;19.73;6.00;;;6.10;99.90;;;;;;5075412;28;20021;-73
2022/01/07 10:20:36;;;;;;;10.35;3.92;;;6.10;99.90;;;;;;5074482;28;20021;-73
2022/01/07 10:23:08;;;;;;;15.85;4.07;;;6.10;99.90;;;;;;5075256;28;20030;-73
2022/01/07 10:25:38;;;;;;;8.00;3.65;;;6.20;99.90;;;;;;5076319;28;20056;-73
2022/01/07 10:28:06;;;;;;;;;;;6.20;99.90;;;;;;5076813;28;20078;-73
2022/01/07 10:30:44;;;;;;;13.20;4.82;;;6.30;99.90;;;;;;5075442;28;19911;-72
2022/01/07 10:33:28;;;;;;;11.38;3.20;;;6.30;99.90;;;;;;5075379;28;20053;-73
2022/01/07 10:35:56;;;;;;;9.80;2.88;;;6.40;99.90;;;;;;5074908;28;20024;-73
2022/01/07 10:38:27;;;;;;;9.23;2.88;;;6.50;99.90;;;;;;5076668;28;20039;-75
2022/01/07 10:40:56;;;;;;;9.20;3.15;;;6.50;99.90;;;;;;5075089;28;20423;-73
2022/01/07 10:43:32;;;;;;;15.93;3.25;;;6.50;99.90;;;;;;5075180;28;20486;-72
2022/01/07 10:46:20;;;;;;;8.82;2.72;;;6.60;99.90;;;;;;5075484;28;20380;-73
2022/01/07 10:48:55;;;;;;;12.38;2.90;;;6.60;99.90;;;;;;5074532;28;20090;-74
2022/01/07 10:51:25;;;;;;;8.43;3.00;;;6.60;99.90;;;;;;5075062;28;20115;-74
2022/01/07 10:54:01;;;;;;;8.15;3.60;;;6.70;99.90;;;;;;5074708;28;20099;-75
2022/01/07 10:56:45;;;;;;;14.88;4.20;;;6.70;99.90;;;;;;5074926;28;20045;-75
2022/01/07 10:59:14;;;;;;;9.73;2.22;;;6.70;99.90;;;;;;5074957;28;20111;-78
2022/01/07 11:01:42;;;;;;;11.13;1.90;;;6.70;99.90;;;;;;5085545;28;20488;-75
2022/01/07 11:04:19;;;;;;;17.60;3.13;;;6.70;99.90;;;;;;5073758;28;20057;-74
2022/01/07 11:06:47;;;;;;;16.88;2.55;;;6.80;99.90;;;;;;5074974;28;20028;-75
2022/01/07 11:09:14;;;;;;;11.77;1.98;;;6.80;99.90;;;;;;5089106;28;20032;-75
2022/01/07 11:11:45;;;;;;;7.85;2.08;;;6.90;99.90;;;;;;5094755;28;20026;-77
2022/01/07 11:14:15;;;;;;;13.10;1.88;;;6.90;99.90;;;;;;5085383;28;20074;-75
2022/01/07 11:16:40;;;;;;;5.57;1.50;;;6.90;99.90;;;;;;5074122;28;20028;-75
2022/01/07 11:19:08;;;;;;;14.50;2.30;;;7.00;99.90;;;;;;5073691;28;20127;-74
2022/01/07 11:21:34;;;;;;;9.02;2.17;;;7.10;99.90;;;;;;5074340;28;20032;-74
2022/01/07 11:24:36;;;;;;;9.18;2.38;;;7.10;99.90;;;;;;5073947;28;20047;-74
2022/01/07 11:27:13;;;;;;;6.18;1.48;;;7.10;99.90;;;;;;5079514;28;20043;-74
2022/01/07 11:29:54;;;;;;;5.00;1.85;;;7.10;99.90;;;;;;5091499;28;20024;-75
2022/01/07 11:32:25;;;;;;;11.65;2.15;;;7.00;99.90;;;;;;5093567;28;20387;-74
2022/01/07 11:34:52;;;;;;;25.77;4.38;;;7.10;99.90;;;;;;5083748;28;20017;-75
2022/01/07 11:37:38;;;;;;;8.00;1.48;;;7.00;99.90;;;;;;5073156;28;20048;-76
2022/01/07 11:40:05;;;;;;;20.40;3.22;;;7.10;99.90;;;;;;5074220;28;20021;-74
2022/01/07 11:42:42;;;;;;;10.38;2.00;;;7.20;99.90;;;;;;5073369;28;20020;-75
2022/01/07 11:45:27;;;;;;;10.52;3.25;;;7.20;99.90;;;;;;5086739;28;20418;-75
2022/01/07 11:47:53;;;;;;;10.15;1.75;;;7.20;99.90;;;;;;5089939;28;20039;-74
2022/01/07 11:50:19;;;;;;;5.68;1.48;;;7.20;99.90;;;;;;5091850;28;20388;-74
2022/01/07 11:53:04;;;;;;;7.82;2.05;;;7.20;99.90;;;;;;5091018;28;20031;-74
2022/01/07 11:55:36;;;;;;;12.82;2.03;;;7.20;99.90;;;;;;5091324;28;20017;-75
2022/01/07 11:58:04;;;;;;;7.28;1.98;;;7.10;99.90;;;;;;5082334;28;20039;-75
2022/01/07 12:00:49;;;;;;;16.10;2.53;;;7.10;99.90;;;;;;5088471;28;20025;-73
2022/01/07 12:03:38;;;;;;;11.23;1.80;;;7.00;99.90;;;;;;5090920;28;20158;-74
2022/01/07 12:06:25;;;;;;;11.07;1.63;;;6.80;99.90;;;;;;5083207;28;20081;-74
2022/01/07 12:09:11;;;;;;;13.50;3.40;;;6.70;99.90;;;;;;5073512;28;20052;-73
2022/01/07 12:11:43;;;;;;;6.70;1.70;;;7.50;99.90;;;;;;5073392;28;20038;-72
2022/01/07 12:14:14;;;;;;;14.07;2.28;;;6.50;99.90;;;;;;5072496;28;20457;-73
2022/01/07 12:16:45;;;;;;;8.00;1.40;;;6.40;99.90;;;;;;5074025;28;20028;-72
2022/01/07 12:19:16;;;;;;;2.83;0.90;;;6.20;99.90;;;;;;5072978;28;20082;-72
2022/01/07 12:21:43;;;;;;;6.47;1.10;;;6.10;99.90;;;;;;5073308;28;20033;-73
2022/01/07 12:24:10;;;;;;;7.03;0.88;;;6.00;99.90;;;;;;5073294;28;20028;-74
2022/01/07 12:26:36;;;;;;;5.90;1.75;;;5.80;99.90;;;;;;5072542;28;20047;-73
2022/01/07 12:29:03;;;;;;;13.98;1.83;;;5.80;99.90;;;;;;5073396;28;20452;-72
2022/01/07 12:31:29;;;;;;;4.43;0.85;;;5.70;99.90;;;;;;5073380;28;20048;-71
2022/01/07 12:33:57;;;;;;;3.05;0.80;;;5.60;99.90;;;;;;5073934;28;20039;-71
2022/01/07 12:36:25;;;;;;;3.38;0.57;;;5.30;99.90;;;;;;5073569;28;20406;-70
2022/01/07 12:39:08;;;;;;;3.72;0.52;;;5.10;99.90;;;;;;5073381;28;20020;-70
2022/01/07 12:41:35;;;;;;;5.05;0.75;;;5.00;99.90;;;;;;5072797;28;20434;-70
2022/01/07 12:44:09;;;;;;;4.50;0.65;;;5.00;99.90;;;;;;5074622;28;20451;-71
2022/01/07 12:46:36;;;;;;;5.78;0.50;;;5.00;99.90;;;;;;5073402;28;20033;-71
2022/01/07 12:49:01;;;;;;;1.35;0.50;;;4.90;99.90;;;;;;5072650;28;20056;-71
2022/01/07 12:51:29;;;;;;;1.42;0.60;;;4.90;99.90;;;;;;5073071;28;20059;-72
2022/01/07 12:54:00;;;;;;;4.97;0.93;;;4.90;99.90;;;;;;5072999;28;20361;-70
2022/01/07 12:56:27;;;;;;;3.78;1.20;;;4.90;99.90;;;;;;5071966;28;20108;-70
2022/01/07 12:58:53;;;;;;;6.85;1.15;;;5.00;99.90;;;;;;5073053;28;20032;-70